ENRS/RET METAR and TAF weather

Enter ICAO airport designator
Station Type Date Time Source
ENRS METAR 2022/07/01 02:20 UTC NOAA

ENRS 010220Z AUTO 09011KT 9999 NCD 14/11 Q1016


Station Type Date Time Source
ENRS Decoded METAR 2022/07/01 02:20 UTC NOAA

Rost Flyplass, Norway (ENRS) 67-31N 012-06E
Jun 30, 2022 - 10:20 PM EDT / 2022.07.01 0220 UTC
Wind: from the E (090 degrees) at 13 MPH (11 KT):0
Visibility: greater than 7 mile(s):0
Temperature: 57 F (14 C)
Dew Point: 51 F (11 C)
Relative Humidity: 82%
Pressure (altimeter): 30.00 in. Hg (1016 hPa)
ob: ENRS 010220Z AUTO 09011KT 9999 NCD 14/11 Q1016
cycle: 2

Station Type Date Time Source
ENRS TAF UTC NOAA

Error!

Example: see airport list